createdAt,value
2022-12-25T00:00:20.744Z,14.00
2022-12-25T00:02:22.877Z,13.97
2022-12-25T00:04:24.589Z,13.95
2022-12-25T00:06:26.252Z,13.91
2022-12-25T00:08:27.887Z,13.95
2022-12-25T00:10:29.467Z,13.95
2022-12-25T00:12:32.621Z,13.95
2022-12-25T00:14:34.245Z,13.83
2022-12-25T00:16:35.918Z,13.92
2022-12-25T00:18:37.500Z,13.91
2022-12-25T00:20:39.037Z,13.96
2022-12-25T00:22:40.642Z,13.95
2022-12-25T00:24:42.164Z,13.94
2022-12-25T00:26:43.755Z,13.92
2022-12-25T00:28:46.807Z,13.94
2022-12-25T00:30:48.463Z,13.97
2022-12-25T00:32:50.063Z,13.95
2022-12-25T00:34:51.700Z,13.91
2022-12-25T00:36:53.268Z,13.89
2022-12-25T00:38:54.917Z,13.94
2022-12-25T00:40:56.520Z,13.93
2022-12-25T00:42:58.329Z,13.91
2022-12-25T00:45:01.327Z,14.03
2022-12-25T00:47:03.586Z,14.07
2022-12-25T00:49:05.236Z,14.04
2022-12-25T00:51:17.709Z,14.08
2022-12-25T00:53:19.331Z,14.02
2022-12-25T00:55:20.882Z,14.03
2022-12-25T00:57:22.517Z,14.06
2022-12-25T00:59:24.142Z,14.02
2022-12-25T01:01:27.182Z,13.99
2022-12-25T01:03:29.018Z,14.00
2022-12-25T01:05:30.746Z,14.03
2022-12-25T01:07:32.324Z,13.99
2022-12-25T01:09:33.892Z,14.00
2022-12-25T01:11:35.522Z,14.00
2022-12-25T01:13:38.096Z,13.97
2022-12-25T01:15:39.704Z,13.94
2022-12-25T01:17:43.118Z,13.95
2022-12-25T01:19:44.749Z,13.97
2022-12-25T01:21:46.335Z,13.95
2022-12-25T01:23:48.786Z,13.88
2022-12-25T01:25:50.359Z,13.87
2022-12-25T01:27:51.958Z,13.91
2022-12-25T01:29:53.792Z,13.89
2022-12-25T01:31:55.453Z,13.90
2022-12-25T01:33:58.395Z,13.88
2022-12-25T01:36:00.013Z,13.89
2022-12-25T01:38:01.606Z,13.88
2022-12-25T01:40:03.553Z,13.93
2022-12-25T01:42:05.294Z,13.89
2022-12-25T01:44:27.863Z,13.89
2022-12-25T01:46:30.205Z,13.92
2022-12-25T01:48:35.587Z,13.91
2022-12-25T01:50:43.659Z,13.93
2022-12-25T01:52:46.702Z,13.90
2022-12-25T01:54:51.739Z,13.89
2022-12-25T01:56:57.344Z,13.92
2022-12-25T01:58:59.761Z,13.87
2022-12-25T02:01:01.481Z,13.85
2022-12-25T02:03:03.838Z,13.88
2022-12-25T02:05:10.253Z,13.85
2022-12-25T02:07:14.707Z,13.89
2022-12-25T02:09:16.313Z,13.85
2022-12-25T02:11:17.951Z,13.85
2022-12-25T02:13:20.231Z,13.85
2022-12-25T02:15:27.813Z,13.85
2022-12-25T02:17:35.743Z,13.83
2022-12-25T02:19:56.467Z,13.83
2022-12-25T02:22:10.846Z,13.81
2022-12-25T02:24:52.348Z,13.76
2022-12-25T02:27:11.367Z,13.79
2022-12-25T02:29:21.463Z,13.79
2022-12-25T02:31:31.314Z,13.79
2022-12-25T02:33:39.684Z,13.79
2022-12-25T02:35:43.759Z,13.74
2022-12-25T02:37:52.390Z,13.77
2022-12-25T02:39:59.598Z,13.79
2022-12-25T02:42:05.972Z,13.81
2022-12-25T02:44:12.990Z,13.80
2022-12-25T02:46:20.378Z,13.82
2022-12-25T02:48:26.116Z,13.84
2022-12-25T02:50:27.943Z,13.78
2022-12-25T02:52:30.652Z,13.80
2022-12-25T02:54:36.511Z,13.84
2022-12-25T02:56:40.249Z,13.84
2022-12-25T02:58:44.461Z,13.87
2022-12-25T03:00:48.762Z,13.86
2022-12-25T03:02:52.924Z,13.86
2022-12-25T03:04:57.688Z,13.88
2022-12-25T03:07:07.202Z,13.86
2022-12-25T03:09:12.451Z,13.85
2022-12-25T03:11:14.055Z,13.84
2022-12-25T03:13:20.111Z,13.86
2022-12-25T03:15:22.575Z,13.86
2022-12-25T03:17:24.652Z,13.88
2022-12-25T03:19:31.654Z,13.90
2022-12-25T03:21:33.274Z,13.89
2022-12-25T03:23:37.437Z,13.93
2022-12-25T03:25:39.012Z,13.90
2022-12-25T03:27:44.250Z,13.89
2022-12-25T03:29:45.929Z,13.90
2022-12-25T03:31:54.875Z,13.87
2022-12-25T03:34:08.004Z,13.88
2022-12-25T03:36:18.377Z,13.86
2022-12-25T03:38:30.187Z,13.83
2022-12-25T03:40:38.936Z,13.82
2022-12-25T03:42:51.291Z,13.81
2022-12-25T03:45:00.358Z,13.77
2022-12-25T03:47:09.851Z,13.78
2022-12-25T03:49:20.024Z,13.77
2022-12-25T03:51:29.881Z,13.78
2022-12-25T03:53:39.103Z,13.73
2022-12-25T03:55:42.209Z,13.77
2022-12-25T03:57:46.780Z,13.79
2022-12-25T03:59:48.343Z,13.78
2022-12-25T04:01:50.467Z,13.71
2022-12-25T04:03:52.096Z,13.72
2022-12-25T04:05:53.687Z,13.72
2022-12-25T04:07:56.656Z,13.69
2022-12-25T04:09:58.247Z,13.68
2022-12-25T04:12:02.712Z,13.67
2022-12-25T04:14:07.779Z,13.65
2022-12-25T04:16:09.315Z,13.66
2022-12-25T04:18:11.130Z,13.63
2022-12-25T04:20:12.735Z,13.64
2022-12-25T04:22:14.305Z,13.58
2022-12-25T04:24:17.228Z,13.62
2022-12-25T04:26:19.013Z,13.64
2022-12-25T04:28:20.524Z,13.64
2022-12-25T04:30:22.089Z,13.67
2022-12-25T04:32:23.621Z,13.69
2022-12-25T04:34:25.186Z,13.64
2022-12-25T04:36:26.708Z,13.69
2022-12-25T04:38:28.240Z,13.68
2022-12-25T04:40:31.145Z,13.70
2022-12-25T04:42:32.946Z,13.71
2022-12-25T04:44:34.569Z,13.66
2022-12-25T04:46:36.284Z,13.68
2022-12-25T04:48:37.879Z,13.67
2022-12-25T04:50:39.478Z,13.67
2022-12-25T04:52:41.294Z,13.68
2022-12-25T04:54:42.824Z,13.68
2022-12-25T04:56:46.170Z,13.69
2022-12-25T04:58:48.121Z,13.72
2022-12-25T05:00:49.695Z,13.77
2022-12-25T05:02:51.534Z,13.74
2022-12-25T05:04:53.261Z,13.74
2022-12-25T05:06:54.889Z,13.73
2022-12-25T05:08:56.544Z,13.78
2022-12-25T05:10:58.197Z,13.80
2022-12-25T05:13:01.091Z,13.80
2022-12-25T05:15:02.758Z,13.81
2022-12-25T05:17:04.305Z,13.81
2022-12-25T05:19:05.853Z,13.79
2022-12-25T05:21:09.126Z,13.79
2022-12-25T05:23:11.258Z,13.78
2022-12-25T05:25:12.771Z,13.73
2022-12-25T05:27:14.975Z,13.76
2022-12-25T05:29:17.882Z,13.77
2022-12-25T05:31:20.018Z,13.73
2022-12-25T05:33:21.618Z,13.76
2022-12-25T05:35:23.128Z,13.81
2022-12-25T05:37:24.665Z,13.81
2022-12-25T05:39:26.297Z,13.82
2022-12-25T05:41:33.799Z,13.83
2022-12-25T05:43:35.931Z,13.84
2022-12-25T05:45:39.001Z,13.81
2022-12-25T05:47:40.585Z,13.88
2022-12-25T05:49:42.654Z,13.91
2022-12-25T05:51:44.233Z,13.88
2022-12-25T05:53:45.796Z,13.88
2022-12-25T05:55:47.411Z,13.87
2022-12-25T05:57:48.960Z,13.85
2022-12-25T05:59:50.531Z,13.88
2022-12-25T06:01:53.541Z,13.85
2022-12-25T06:03:56.026Z,13.83
2022-12-25T06:05:57.661Z,13.86
2022-12-25T06:07:59.215Z,13.80
2022-12-25T06:10:00.881Z,13.80
2022-12-25T06:12:02.496Z,13.77
2022-12-25T06:14:04.025Z,13.78
2022-12-25T06:16:06.617Z,13.74
2022-12-25T06:18:09.614Z,13.70
2022-12-25T06:20:11.692Z,13.74
2022-12-25T06:22:13.227Z,13.78
2022-12-25T06:24:21.036Z,13.80
2022-12-25T06:26:23.082Z,13.80
2022-12-25T06:28:24.663Z,13.83
2022-12-25T06:30:26.208Z,13.84
2022-12-25T06:32:27.841Z,13.82
2022-12-25T06:34:30.823Z,13.83
2022-12-25T06:36:32.511Z,13.83
2022-12-25T06:38:34.369Z,13.87
2022-12-25T06:40:35.923Z,13.91
2022-12-25T06:42:37.494Z,13.92
2022-12-25T06:44:39.032Z,13.88
2022-12-25T06:46:40.629Z,13.85
2022-12-25T06:48:43.037Z,13.86
2022-12-25T06:50:45.974Z,13.81
2022-12-25T06:52:47.513Z,13.80
2022-12-25T06:54:49.038Z,13.79
2022-12-25T06:56:50.578Z,13.78
2022-12-25T06:58:53.810Z,13.81
2022-12-25T07:00:55.712Z,13.80
2022-12-25T07:02:57.438Z,13.82
2022-12-25T07:05:00.562Z,13.83
2022-12-25T07:07:08.773Z,13.79
2022-12-25T07:09:10.932Z,13.77
2022-12-25T07:11:12.491Z,13.82
2022-12-25T07:13:14.030Z,13.79
2022-12-25T07:15:15.642Z,13.78
2022-12-25T07:17:17.740Z,13.70
2022-12-25T07:19:19.370Z,13.67
2022-12-25T07:21:21.454Z,13.65
2022-12-25T07:23:24.333Z,13.69
2022-12-25T07:25:25.835Z,13.68
2022-12-25T07:27:27.337Z,13.72
2022-12-25T07:29:28.869Z,13.70
2022-12-25T07:31:33.212Z,13.68
2022-12-25T07:33:34.954Z,13.63
2022-12-25T07:35:36.547Z,13.57
2022-12-25T07:37:38.112Z,13.64
2022-12-25T07:39:41.115Z,13.63
2022-12-25T07:41:42.866Z,13.65
2022-12-25T07:43:44.413Z,13.65
2022-12-25T07:45:46.130Z,13.68
2022-12-25T07:47:47.744Z,13.68
2022-12-25T07:49:49.268Z,13.71
2022-12-25T07:51:50.832Z,13.69
2022-12-25T07:53:54.153Z,13.73
2022-12-25T07:56:02.481Z,13.76
2022-12-25T07:58:04.068Z,13.72
2022-12-25T08:00:10.376Z,13.69
2022-12-25T08:02:12.062Z,13.73
2022-12-25T08:04:13.931Z,13.73
2022-12-25T08:06:15.627Z,13.72
2022-12-25T08:08:17.209Z,13.72
2022-12-25T08:10:18.769Z,13.75
2022-12-25T08:12:21.737Z,13.69
2022-12-25T08:14:23.355Z,13.72
2022-12-25T08:16:25.385Z,13.76
2022-12-25T08:18:30.098Z,13.75
2022-12-25T08:20:32.005Z,13.76
2022-12-25T08:22:33.624Z,13.73
2022-12-25T08:24:35.227Z,13.73
2022-12-25T08:26:36.875Z,13.80
2022-12-25T08:28:40.321Z,13.88
2022-12-25T08:30:41.943Z,13.83
2022-12-25T08:32:43.552Z,13.83
2022-12-25T08:34:45.261Z,13.79
2022-12-25T08:36:46.901Z,13.79
2022-12-25T08:38:48.581Z,13.82
2022-12-25T08:40:50.143Z,13.81
2022-12-25T08:42:51.909Z,13.83
2022-12-25T08:44:54.836Z,13.86
2022-12-25T08:46:56.420Z,13.87
2022-12-25T08:48:58.236Z,13.92
2022-12-25T08:51:00.035Z,14.02
2022-12-25T08:53:02.054Z,14.00
2022-12-25T08:55:04.023Z,14.07
2022-12-25T08:57:05.575Z,14.15
2022-12-25T08:59:07.140Z,14.11
2022-12-25T09:01:10.760Z,14.13
2022-12-25T09:03:12.459Z,14.16
2022-12-25T09:05:14.212Z,14.08
2022-12-25T09:07:15.819Z,14.18
2022-12-25T09:09:17.458Z,14.21
2022-12-25T09:11:20.246Z,14.23
2022-12-25T09:13:21.904Z,14.25
2022-12-25T09:15:23.532Z,14.27
2022-12-25T09:17:29.954Z,14.31
2022-12-25T09:19:31.867Z,14.31
2022-12-25T09:21:33.647Z,14.30
2022-12-25T09:23:35.360Z,14.28
2022-12-25T09:25:36.983Z,14.29
2022-12-25T09:27:38.570Z,14.27
2022-12-25T09:29:40.278Z,14.29
2022-12-25T09:31:44.653Z,14.31
2022-12-25T09:33:47.774Z,14.31
2022-12-25T09:36:00.113Z,14.36
2022-12-25T09:38:02.496Z,14.37
2022-12-25T09:40:05.213Z,14.39
2022-12-25T09:42:12.137Z,14.39
2022-12-25T09:44:18.925Z,14.41
2022-12-25T09:46:23.548Z,14.39
2022-12-25T09:48:28.009Z,14.41
2022-12-25T09:50:40.057Z,14.46
2022-12-25T09:52:45.991Z,14.50
2022-12-25T09:54:56.481Z,14.54
2022-12-25T09:56:58.115Z,14.57
2022-12-25T09:58:59.876Z,14.59
2022-12-25T10:01:12.795Z,14.66
2022-12-25T10:03:29.193Z,14.73
2022-12-25T10:05:52.035Z,14.78
2022-12-25T10:08:03.200Z,14.81
2022-12-25T10:10:18.283Z,14.81
2022-12-25T10:12:37.923Z,14.78
2022-12-25T10:14:49.454Z,14.77
2022-12-25T10:17:01.948Z,14.77
2022-12-25T10:19:14.165Z,14.78
2022-12-25T10:21:18.791Z,14.88
2022-12-25T10:23:27.216Z,14.96
2022-12-25T10:25:28.949Z,15.04
2022-12-25T10:27:34.628Z,15.08
2022-12-25T10:29:36.288Z,15.11
2022-12-25T10:31:37.965Z,15.11
2022-12-25T10:33:39.605Z,15.11
2022-12-25T10:35:47.471Z,15.13
2022-12-25T10:37:57.404Z,15.14
2022-12-25T10:39:59.386Z,15.17
2022-12-25T10:42:28.225Z,15.18
2022-12-25T10:44:30.429Z,15.20
2022-12-25T10:46:32.293Z,15.10
2022-12-25T10:48:34.031Z,15.13
2022-12-25T10:50:42.772Z,15.16
2022-12-25T10:53:00.417Z,15.17
2022-12-25T10:55:11.472Z,15.13
2022-12-25T10:57:16.035Z,15.11
2022-12-25T10:59:17.598Z,15.14
2022-12-25T11:01:19.381Z,15.18
2022-12-25T11:03:23.510Z,15.19
2022-12-25T11:05:28.243Z,15.23
2022-12-25T11:07:31.067Z,15.29
2022-12-25T11:09:34.331Z,15.30
2022-12-25T11:11:36.112Z,15.30
2022-12-25T11:13:47.300Z,15.30
2022-12-25T11:15:50.097Z,15.26
2022-12-25T11:17:51.678Z,15.27
2022-12-25T11:19:57.030Z,15.30
2022-12-25T11:22:01.987Z,15.24
2022-12-25T11:24:05.111Z,15.27
2022-12-25T11:26:10.384Z,15.24
2022-12-25T11:28:12.298Z,15.26
2022-12-25T11:30:16.231Z,15.29
2022-12-25T11:32:22.476Z,15.27
2022-12-25T11:34:32.293Z,15.32
2022-12-25T11:36:43.580Z,15.33
2022-12-25T11:38:45.235Z,15.37
2022-12-25T11:40:49.926Z,15.37
2022-12-25T11:42:57.566Z,15.37
2022-12-25T11:45:05.351Z,15.39
2022-12-25T11:47:13.347Z,15.36
2022-12-25T11:49:18.607Z,15.37
2022-12-25T11:51:21.088Z,15.38
2022-12-25T11:53:29.155Z,15.37
2022-12-25T11:55:35.574Z,15.38
2022-12-25T11:57:39.094Z,15.45
2022-12-25T11:59:50.200Z,15.48
2022-12-25T12:01:57.547Z,15.48
2022-12-25T12:04:00.885Z,15.49
2022-12-25T12:06:08.687Z,15.53
2022-12-25T12:08:10.568Z,15.56
2022-12-25T12:10:18.280Z,15.57
2022-12-25T12:12:27.181Z,15.62
2022-12-25T12:14:42.155Z,15.68
2022-12-25T12:16:45.234Z,15.67
2022-12-25T12:18:50.277Z,15.68
2022-12-25T12:21:00.619Z,15.74
2022-12-25T12:23:05.025Z,15.77
2022-12-25T12:25:07.821Z,15.74
2022-12-25T12:27:22.281Z,15.80
2022-12-25T12:29:28.165Z,15.77
2022-12-25T12:31:38.573Z,15.80
2022-12-25T12:33:54.657Z,15.83
2022-12-25T12:35:57.519Z,15.89
2022-12-25T12:38:02.076Z,15.92
2022-12-25T12:40:05.795Z,15.97
2022-12-25T12:42:13.571Z,15.96
2022-12-25T12:44:17.466Z,15.98
2022-12-25T12:46:27.963Z,15.98
2022-12-25T12:48:40.317Z,16.01
2022-12-25T12:50:43.591Z,16.02
2022-12-25T12:52:45.436Z,16.03
2022-12-25T12:54:57.039Z,16.06
2022-12-25T12:57:00.885Z,16.02
2022-12-25T12:59:04.803Z,16.02
2022-12-25T13:01:14.247Z,16.01
2022-12-25T13:03:43.751Z,15.93
2022-12-25T13:05:50.541Z,15.88
2022-12-25T13:08:02.442Z,15.84
2022-12-25T13:10:16.912Z,15.73
2022-12-25T13:12:21.460Z,15.73
2022-12-25T13:14:24.946Z,15.85
2022-12-25T13:16:34.626Z,15.87
2022-12-25T13:18:39.501Z,15.86
2022-12-25T13:20:47.898Z,15.90
2022-12-25T13:22:52.958Z,15.93
2022-12-25T13:24:57.232Z,15.96
2022-12-25T13:27:00.198Z,15.95
2022-12-25T13:29:03.947Z,16.00
2022-12-25T13:31:15.652Z,15.95
2022-12-25T13:33:19.099Z,15.98
2022-12-25T13:35:23.149Z,16.00
2022-12-25T13:37:29.826Z,16.02
2022-12-25T13:39:33.854Z,15.97
2022-12-25T13:41:42.150Z,16.08
2022-12-25T13:43:44.805Z,16.13
2022-12-25T13:45:54.671Z,16.13
2022-12-25T13:47:57.031Z,16.16
2022-12-25T13:50:01.269Z,16.13
2022-12-25T13:52:11.650Z,16.15
2022-12-25T13:54:16.152Z,16.14
2022-12-25T13:56:17.772Z,16.14
2022-12-25T13:58:27.333Z,16.13
2022-12-25T14:00:33.306Z,16.13
2022-12-25T14:02:37.360Z,16.12
2022-12-25T14:04:44.517Z,16.13
2022-12-25T14:06:47.709Z,16.14
2022-12-25T14:08:50.967Z,16.13
2022-12-25T14:10:55.570Z,16.16
2022-12-25T14:13:00.864Z,16.13
2022-12-25T14:15:04.274Z,16.12
2022-12-25T14:17:06.053Z,16.15
2022-12-25T14:19:24.973Z,16.14
2022-12-25T14:21:29.797Z,16.13
2022-12-25T14:23:39.381Z,16.13
2022-12-25T14:25:42.743Z,16.15
2022-12-25T14:27:50.702Z,16.19
2022-12-25T14:29:55.646Z,16.19
2022-12-25T14:32:00.333Z,16.23
2022-12-25T14:34:04.996Z,16.21
2022-12-25T14:36:07.391Z,16.19
2022-12-25T14:38:17.303Z,16.17
2022-12-25T14:40:23.909Z,16.12
2022-12-25T14:42:27.403Z,16.09
2022-12-25T14:44:33.819Z,16.10
2022-12-25T14:46:35.452Z,16.06
2022-12-25T14:48:37.169Z,16.01
2022-12-25T14:50:43.046Z,15.99
2022-12-25T14:52:45.359Z,15.97
2022-12-25T14:54:49.805Z,15.95
2022-12-25T14:56:53.559Z,15.96
2022-12-25T14:58:56.936Z,15.92
2022-12-25T15:01:02.723Z,15.97
2022-12-25T15:03:06.866Z,15.96
2022-12-25T15:05:24.497Z,15.91
2022-12-25T15:07:29.493Z,15.82
2022-12-25T15:09:31.075Z,15.80
2022-12-25T15:11:33.017Z,15.78
2022-12-25T15:13:34.621Z,15.74
2022-12-25T15:15:36.271Z,15.68
2022-12-25T15:17:39.195Z,15.69
2022-12-25T15:19:40.783Z,15.70
2022-12-25T15:21:42.402Z,15.70
2022-12-25T15:23:44.404Z,15.67
2022-12-25T15:25:46.091Z,15.66
2022-12-25T15:27:49.158Z,15.69
2022-12-25T15:32:16.995Z,15.71
2022-12-25T15:34:20.863Z,15.74
2022-12-25T15:36:23.558Z,15.76
2022-12-25T15:38:25.250Z,15.76
2022-12-25T15:40:26.855Z,15.77
2022-12-25T15:42:28.514Z,15.78
2022-12-25T15:44:30.110Z,15.76
2022-12-25T15:46:32.354Z,15.69
2022-12-25T15:48:34.047Z,15.68
2022-12-25T15:50:36.989Z,15.65
2022-12-25T15:52:38.599Z,15.64
2022-12-25T15:54:40.261Z,15.64
2022-12-25T15:56:44.599Z,15.63
2022-12-25T15:58:46.186Z,15.56
2022-12-25T16:00:47.788Z,15.57
2022-12-25T16:02:49.894Z,15.62
2022-12-25T16:04:51.876Z,15.64
2022-12-25T16:06:55.691Z,15.59
2022-12-25T16:08:57.288Z,15.59
2022-12-25T16:10:58.803Z,15.56
2022-12-25T16:13:00.415Z,15.59
2022-12-25T16:15:02.096Z,15.55
2022-12-25T16:17:03.962Z,15.52
2022-12-25T16:19:05.944Z,15.49
2022-12-25T16:21:13.096Z,15.43
2022-12-25T16:23:16.080Z,15.41
2022-12-25T16:25:19.366Z,15.39
2022-12-25T16:27:21.327Z,15.34
2022-12-25T16:29:22.975Z,15.31
2022-12-25T16:31:24.531Z,15.27
2022-12-25T16:33:26.259Z,15.27
2022-12-25T16:35:27.857Z,15.24
2022-12-25T16:37:29.451Z,15.21
2022-12-25T16:39:33.035Z,15.22
2022-12-25T16:41:34.692Z,15.14
2022-12-25T16:43:36.253Z,15.19
2022-12-25T16:45:38.549Z,15.14
2022-12-25T16:47:42.928Z,15.14
2022-12-25T16:49:44.479Z,15.14
2022-12-25T16:51:46.124Z,15.16
2022-12-25T16:53:48.025Z,15.11
2022-12-25T16:55:50.887Z,15.14
2022-12-25T16:57:52.492Z,15.11
2022-12-25T16:59:54.084Z,15.13
2022-12-25T17:01:55.741Z,15.12
2022-12-25T17:03:59.105Z,15.10
2022-12-25T17:06:01.787Z,15.08
2022-12-25T17:08:03.537Z,15.08
2022-12-25T17:10:06.443Z,15.05
2022-12-25T17:12:09.579Z,15.03
2022-12-25T17:14:11.143Z,15.04
2022-12-25T17:16:14.772Z,15.04
2022-12-25T17:18:16.283Z,14.99
2022-12-25T17:20:17.863Z,14.94
2022-12-25T17:22:19.467Z,14.96
2022-12-25T17:24:21.594Z,14.95
2022-12-25T17:26:23.133Z,14.94
2022-12-25T17:28:26.012Z,14.94
2022-12-25T17:30:27.563Z,14.95
2022-12-25T17:32:29.118Z,14.94
2022-12-25T17:34:30.656Z,15.00
2022-12-25T17:36:32.988Z,15.02
2022-12-25T17:38:34.613Z,14.96
2022-12-25T17:40:36.353Z,14.96
2022-12-25T17:42:37.885Z,14.96
2022-12-25T17:44:40.804Z,14.96
2022-12-25T17:46:42.680Z,14.93
2022-12-25T17:48:44.692Z,14.94
2022-12-25T17:50:46.728Z,15.00
2022-12-25T17:52:48.305Z,15.03
2022-12-25T17:54:49.847Z,14.95
2022-12-25T17:56:51.381Z,14.92
2022-12-25T17:58:55.166Z,14.93
2022-12-25T18:00:58.133Z,14.93
2022-12-25T18:03:03.016Z,14.93
2022-12-25T18:05:10.604Z,14.89
2022-12-25T18:07:12.884Z,14.88
2022-12-25T18:09:14.445Z,14.90
2022-12-25T18:11:19.123Z,14.95
2022-12-25T18:13:20.677Z,14.98
2022-12-25T18:15:22.244Z,14.97
2022-12-25T18:17:25.221Z,14.93
2022-12-25T18:19:26.822Z,14.91
2022-12-25T18:21:28.674Z,14.91
2022-12-25T18:23:30.901Z,14.96
2022-12-25T18:25:32.535Z,14.97
2022-12-25T18:27:34.081Z,14.94
2022-12-25T18:29:35.675Z,14.99
2022-12-25T18:31:37.362Z,14.98
2022-12-25T18:33:40.877Z,14.96
2022-12-25T18:35:43.533Z,14.91
2022-12-25T18:37:45.196Z,14.92
2022-12-25T18:39:47.323Z,14.90
2022-12-25T18:41:48.927Z,14.84
2022-12-25T18:43:52.630Z,14.85
2022-12-25T18:45:57.642Z,14.80
2022-12-25T18:47:59.267Z,14.79
2022-12-25T18:50:02.362Z,14.78
2022-12-25T18:52:48.825Z,14.76
2022-12-25T18:54:25.858Z,14.77
2022-12-25T18:56:27.451Z,14.76
2022-12-25T18:58:29.153Z,14.69
2022-12-25T19:00:30.979Z,14.73
2022-12-25T19:02:32.705Z,14.65
2022-12-25T19:04:34.377Z,14.66
2022-12-25T19:06:37.346Z,14.60
2022-12-25T19:08:38.884Z,14.57
2022-12-25T19:10:43.635Z,14.56
2022-12-25T19:12:45.684Z,14.57
2022-12-25T19:14:48.541Z,14.55
2022-12-25T19:16:50.239Z,14.54
2022-12-25T19:18:52.111Z,14.51
2022-12-25T19:20:53.725Z,14.46
2022-12-25T19:22:56.627Z,14.45
2022-12-25T19:24:58.306Z,14.45
2022-12-25T19:27:01.371Z,14.44
2022-12-25T19:29:03.535Z,14.47
2022-12-25T19:31:07.556Z,14.49
2022-12-25T19:33:15.591Z,14.52
2022-12-25T19:35:19.153Z,14.44
2022-12-25T19:37:20.856Z,14.41
2022-12-25T19:39:23.772Z,14.37
2022-12-25T19:41:25.474Z,14.41
2022-12-25T19:43:28.060Z,14.41
2022-12-25T19:45:29.727Z,14.42
2022-12-25T19:47:31.357Z,14.46
2022-12-25T19:49:32.995Z,14.45
2022-12-25T19:51:37.345Z,14.45
2022-12-25T19:53:38.936Z,14.43
2022-12-25T19:55:41.912Z,14.43
2022-12-25T19:57:43.474Z,14.45
2022-12-25T19:59:45.215Z,14.57
2022-12-25T20:01:47.189Z,14.59
2022-12-25T20:03:49.485Z,14.54
2022-12-25T20:05:51.578Z,14.47
2022-12-25T20:07:53.934Z,14.55
2022-12-25T20:09:55.493Z,14.57
2022-12-25T20:12:01.539Z,14.60
2022-12-25T20:14:04.034Z,14.65
2022-12-25T20:16:06.594Z,14.68
2022-12-25T20:18:08.404Z,14.67
2022-12-25T20:20:11.003Z,14.66
2022-12-25T20:22:12.623Z,14.64
2022-12-25T20:24:14.183Z,14.66
2022-12-25T20:26:17.749Z,14.67
2022-12-25T20:28:20.753Z,14.63
2022-12-25T20:30:22.361Z,14.70
2022-12-25T20:32:23.997Z,14.73
2022-12-25T20:34:25.691Z,14.67
2022-12-25T20:36:31.196Z,14.68
2022-12-25T20:38:36.169Z,14.63
2022-12-25T20:41:24.023Z,14.64
2022-12-25T20:42:59.314Z,14.74
2022-12-25T20:45:03.536Z,14.78
2022-12-25T20:47:05.261Z,14.79
2022-12-25T20:49:07.304Z,14.81
2022-12-25T20:51:11.098Z,14.77
2022-12-25T20:53:12.720Z,14.84
2022-12-25T20:55:14.317Z,14.81
2022-12-25T20:57:15.962Z,14.79
2022-12-25T20:59:17.623Z,14.87
2022-12-25T21:01:20.755Z,14.87
2022-12-25T21:03:23.032Z,14.78
2022-12-25T21:05:24.670Z,14.77
2022-12-25T21:07:26.388Z,14.74
2022-12-25T21:09:28.251Z,14.71
2022-12-25T21:11:29.827Z,14.66
2022-12-25T21:13:33.227Z,14.68
2022-12-25T21:15:34.785Z,14.71
2022-12-25T21:17:37.708Z,14.75
2022-12-25T21:19:39.361Z,14.67
2022-12-25T21:21:40.965Z,14.69
2022-12-25T21:23:42.536Z,14.68
2022-12-25T21:25:44.380Z,14.68
2022-12-25T21:27:45.955Z,14.62
2022-12-25T21:29:47.487Z,14.61
2022-12-25T21:31:49.091Z,14.57
2022-12-25T21:33:53.299Z,14.58
2022-12-25T21:35:55.067Z,14.59
2022-12-25T21:37:56.799Z,14.54
2022-12-25T21:39:58.629Z,14.57
2022-12-25T21:42:00.194Z,14.56
2022-12-25T21:44:02.198Z,14.55
2022-12-25T21:46:04.769Z,14.55
2022-12-25T21:48:06.662Z,14.59
2022-12-25T21:50:10.694Z,14.54
2022-12-25T21:52:12.469Z,14.58
2022-12-25T21:54:14.845Z,14.54
2022-12-25T21:56:17.209Z,14.56
2022-12-25T21:58:18.769Z,14.61
2022-12-25T22:00:20.749Z,14.60
2022-12-25T22:02:22.476Z,14.60
2022-12-25T22:04:24.237Z,14.56
2022-12-25T22:06:27.166Z,14.61
2022-12-25T22:08:29.888Z,14.61
2022-12-25T22:10:31.455Z,14.59
2022-12-25T22:12:34.521Z,14.57
2022-12-25T22:14:50.522Z,14.56
2022-12-25T22:16:55.207Z,14.52
2022-12-25T22:18:56.788Z,14.53
2022-12-25T22:20:58.326Z,14.56
2022-12-25T22:23:01.475Z,14.57
2022-12-25T22:25:05.612Z,14.59
2022-12-25T22:27:07.270Z,14.62
2022-12-25T22:29:08.833Z,14.62
2022-12-25T22:31:10.498Z,14.62
2022-12-25T22:33:13.202Z,14.59
2022-12-25T22:35:15.046Z,14.65
2022-12-25T22:37:18.204Z,14.65
2022-12-25T22:39:21.200Z,14.67
2022-12-25T22:41:22.741Z,14.68
2022-12-25T22:43:43.337Z,14.80
2022-12-25T22:45:46.333Z,14.71
2022-12-25T22:47:48.002Z,14.65
2022-12-25T22:49:49.671Z,14.63
2022-12-25T22:51:52.033Z,14.69
2022-12-25T22:53:57.396Z,14.72
2022-12-25T22:56:03.353Z,14.73
2022-12-25T22:58:04.882Z,14.75
2022-12-25T23:00:08.583Z,14.75
2022-12-25T23:02:10.231Z,14.80
2022-12-25T23:04:12.431Z,14.78
2022-12-25T23:06:14.035Z,14.77
2022-12-25T23:08:15.625Z,14.81
2022-12-25T23:10:17.268Z,14.80
2022-12-25T23:12:20.208Z,14.80
2022-12-25T23:14:21.854Z,14.80
2022-12-25T23:16:23.904Z,14.80
2022-12-25T23:18:25.524Z,14.79
2022-12-25T23:20:27.051Z,14.81
2022-12-25T23:22:28.608Z,14.87
2022-12-25T23:24:30.171Z,14.87
2022-12-25T23:26:31.752Z,14.81
2022-12-25T23:28:35.338Z,14.77
2022-12-25T23:30:36.985Z,14.76
2022-12-25T23:32:38.977Z,14.75
2022-12-25T23:34:44.961Z,14.79
2022-12-25T23:36:46.590Z,14.78
2022-12-25T23:38:48.095Z,14.77
2022-12-25T23:40:49.726Z,14.71
2022-12-25T23:42:51.303Z,14.73
2022-12-25T23:44:54.144Z,14.64
2022-12-25T23:46:56.639Z,14.66
2022-12-25T23:48:58.278Z,14.65
2022-12-25T23:51:02.672Z,14.63
2022-12-25T23:53:04.239Z,14.69
2022-12-25T23:55:07.142Z,14.70
2022-12-25T23:57:08.858Z,14.70
2022-12-25T23:59:11.570Z,14.66
